sensor_id;sensor_type;location;lat;lon;timestamp;temperature;humidity
16289;DHT22;26089;43.538;5.250;2022-07-21T00:01:28;25.70;99.90
16289;DHT22;26089;43.538;5.250;2022-07-21T00:03:55;25.80;99.90
16289;DHT22;26089;43.538;5.250;2022-07-21T00:06:22;25.80;99.90
16289;DHT22;26089;43.538;5.250;2022-07-21T00:08:50;25.80;99.90
16289;DHT22;26089;43.538;5.250;2022-07-21T00:11:17;25.80;99.90
16289;DHT22;26089;43.538;5.250;2022-07-21T00:13:45;25.80;99.90
16289;DHT22;26089;43.538;5.250;2022-07-21T00:16:12;25.70;99.90
16289;DHT22;26089;43.538;5.250;2022-07-21T00:18:39;25.60;99.90
16289;DHT22;26089;43.538;5.250;2022-07-21T00:21:06;25.60;99.90
16289;DHT22;26089;43.538;5.250;2022-07-21T00:23:33;25.50;99.90
16289;DHT22;26089;43.538;5.250;2022-07-21T00:26:00;25.50;99.90
16289;DHT22;26089;43.538;5.250;2022-07-21T00:28:27;25.50;99.90
16289;DHT22;26089;43.538;5.250;2022-07-21T00:30:56;25.50;99.90
16289;DHT22;26089;43.538;5.250;2022-07-21T00:33:23;25.40;99.90
16289;DHT22;26089;43.538;5.250;2022-07-21T00:35:50;25.40;99.90
16289;DHT22;26089;43.538;5.250;2022-07-21T00:38:17;25.40;99.90
16289;DHT22;26089;43.538;5.250;2022-07-21T00:40:44;25.30;99.90
16289;DHT22;26089;43.538;5.250;2022-07-21T00:43:11;25.30;99.90
16289;DHT22;26089;43.538;5.250;2022-07-21T00:45:38;25.30;99.90
16289;DHT22;26089;43.538;5.250;2022-07-21T00:48:07;25.40;99.90
16289;DHT22;26089;43.538;5.250;2022-07-21T00:50:34;25.30;99.90
16289;DHT22;26089;43.538;5.250;2022-07-21T00:53:01;25.30;99.90
16289;DHT22;26089;43.538;5.250;2022-07-21T00:55:28;25.30;99.90
16289;DHT22;26089;43.538;5.250;2022-07-21T00:57:56;25.20;99.90
16289;DHT22;26089;43.538;5.250;2022-07-21T01:00:25;25.20;99.90
16289;DHT22;26089;43.538;5.250;2022-07-21T01:02:53;25.30;99.90
16289;DHT22;26089;43.538;5.250;2022-07-21T01:05:21;25.20;99.90
16289;DHT22;26089;43.538;5.250;2022-07-21T01:07:51;25.20;99.90
16289;DHT22;26089;43.538;5.250;2022-07-21T01:10:20;25.10;99.90
16289;DHT22;26089;43.538;5.250;2022-07-21T01:12:47;25.00;99.90
16289;DHT22;26089;43.538;5.250;2022-07-21T01:15:15;25.00;99.90
16289;DHT22;26089;43.538;5.250;2022-07-21T01:17:43;25.00;99.90
16289;DHT22;26089;43.538;5.250;2022-07-21T01:20:13;25.00;99.90
16289;DHT22;26089;43.538;5.250;2022-07-21T01:22:44;25.00;99.90
16289;DHT22;26089;43.538;5.250;2022-07-21T01:25:11;25.00;99.90
16289;DHT22;26089;43.538;5.250;2022-07-21T01:27:38;24.90;99.90
16289;DHT22;26089;43.538;5.250;2022-07-21T01:30:07;24.90;99.90
16289;DHT22;26089;43.538;5.250;2022-07-21T01:32:36;24.90;99.90
16289;DHT22;26089;43.538;5.250;2022-07-21T01:35:04;24.90;99.90
16289;DHT22;26089;43.538;5.250;2022-07-21T01:37:35;24.90;99.90
16289;DHT22;26089;43.538;5.250;2022-07-21T01:40:06;24.90;99.90
16289;DHT22;26089;43.538;5.250;2022-07-21T01:42:51;24.90;99.90
16289;DHT22;26089;43.538;5.250;2022-07-21T01:45:20;24.90;99.90
16289;DHT22;26089;43.538;5.250;2022-07-21T01:47:47;24.90;99.90
16289;DHT22;26089;43.538;5.250;2022-07-21T01:50:15;24.90;99.90
16289;DHT22;26089;43.538;5.250;2022-07-21T01:52:44;24.80;99.90
16289;DHT22;26089;43.538;5.250;2022-07-21T01:55:13;24.80;99.90
16289;DHT22;26089;43.538;5.250;2022-07-21T01:57:40;24.70;99.90
16289;DHT22;26089;43.538;5.250;2022-07-21T02:00:08;24.70;99.90
16289;DHT22;26089;43.538;5.250;2022-07-21T02:02:37;24.60;99.90
16289;DHT22;26089;43.538;5.250;2022-07-21T02:05:05;24.60;99.90
16289;DHT22;26089;43.538;5.250;2022-07-21T02:07:32;24.50;99.90
16289;DHT22;26089;43.538;5.250;2022-07-21T02:09:59;24.50;99.90
16289;DHT22;26089;43.538;5.250;2022-07-21T02:12:28;24.50;99.90
16289;DHT22;26089;43.538;5.250;2022-07-21T02:14:55;24.50;99.90
16289;DHT22;26089;43.538;5.250;2022-07-21T02:17:22;24.40;99.90
16289;DHT22;26089;43.538;5.250;2022-07-21T02:19:49;24.40;99.90
16289;DHT22;26089;43.538;5.250;2022-07-21T02:22:16;24.40;99.90
16289;DHT22;26089;43.538;5.250;2022-07-21T02:24:43;24.40;99.90
16289;DHT22;26089;43.538;5.250;2022-07-21T02:27:10;24.30;99.90
16289;DHT22;26089;43.538;5.250;2022-07-21T02:29:38;24.40;99.90
16289;DHT22;26089;43.538;5.250;2022-07-21T02:32:05;24.50;99.90
16289;DHT22;26089;43.538;5.250;2022-07-21T02:34:32;24.60;99.90
16289;DHT22;26089;43.538;5.250;2022-07-21T02:36:59;24.60;99.90
16289;DHT22;26089;43.538;5.250;2022-07-21T02:39:26;24.60;99.90
16289;DHT22;26089;43.538;5.250;2022-07-21T02:41:53;24.60;99.90
16289;DHT22;26089;43.538;5.250;2022-07-21T02:44:20;24.60;99.90
16289;DHT22;26089;43.538;5.250;2022-07-21T02:46:49;24.60;99.90
16289;DHT22;26089;43.538;5.250;2022-07-21T02:49:16;24.70;99.90
16289;DHT22;26089;43.538;5.250;2022-07-21T02:51:43;24.60;99.90
16289;DHT22;26089;43.538;5.250;2022-07-21T02:54:10;24.60;99.90
16289;DHT22;26089;43.538;5.250;2022-07-21T02:56:37;24.50;99.90
16289;DHT22;26089;43.538;5.250;2022-07-21T02:59:05;24.40;99.90
16289;DHT22;26089;43.538;5.250;2022-07-21T03:01:32;24.40;99.90
16289;DHT22;26089;43.538;5.250;2022-07-21T03:04:00;24.30;99.90
16289;DHT22;26089;43.538;5.250;2022-07-21T03:06:27;24.30;99.90
16289;DHT22;26089;43.538;5.250;2022-07-21T03:08:54;24.20;99.90
16289;DHT22;26089;43.538;5.250;2022-07-21T03:11:21;24.10;99.90
16289;DHT22;26089;43.538;5.250;2022-07-21T03:13:48;24.10;99.90
16289;DHT22;26089;43.538;5.250;2022-07-21T03:16:15;24.10;99.90
16289;DHT22;26089;43.538;5.250;2022-07-21T03:18:42;24.10;99.90
16289;DHT22;26089;43.538;5.250;2022-07-21T03:21:11;24.10;99.90
16289;DHT22;26089;43.538;5.250;2022-07-21T03:23:38;24.10;99.90
16289;DHT22;26089;43.538;5.250;2022-07-21T03:26:05;24.20;99.90
16289;DHT22;26089;43.538;5.250;2022-07-21T03:28:32;24.20;99.90
16289;DHT22;26089;43.538;5.250;2022-07-21T03:31:00;24.20;99.90
16289;DHT22;26089;43.538;5.250;2022-07-21T03:33:27;24.20;99.90
16289;DHT22;26089;43.538;5.250;2022-07-21T03:35:54;24.20;99.90
16289;DHT22;26089;43.538;5.250;2022-07-21T03:38:23;24.10;99.90
16289;DHT22;26089;43.538;5.250;2022-07-21T03:40:51;24.20;99.90
16289;DHT22;26089;43.538;5.250;2022-07-21T03:43:19;24.20;99.90
16289;DHT22;26089;43.538;5.250;2022-07-21T03:45:46;24.10;99.90
16289;DHT22;26089;43.538;5.250;2022-07-21T03:48:13;24.10;99.90
16289;DHT22;26089;43.538;5.250;2022-07-21T03:50:41;24.10;99.90
16289;DHT22;26089;43.538;5.250;2022-07-21T03:53:09;24.10;99.90
16289;DHT22;26089;43.538;5.250;2022-07-21T03:55:37;24.10;99.90
16289;DHT22;26089;43.538;5.250;2022-07-21T03:58:05;24.10;99.90
16289;DHT22;26089;43.538;5.250;2022-07-21T04:00:34;24.10;99.90
16289;DHT22;26089;43.538;5.250;2022-07-21T04:03:02;24.00;99.90
16289;DHT22;26089;43.538;5.250;2022-07-21T04:05:29;24.00;99.90
16289;DHT22;26089;43.538;5.250;2022-07-21T04:07:57;24.00;99.90
16289;DHT22;26089;43.538;5.250;2022-07-21T04:10:25;23.90;99.90
16289;DHT22;26089;43.538;5.250;2022-07-21T04:12:56;23.80;99.90
16289;DHT22;26089;43.538;5.250;2022-07-21T04:15:23;23.80;99.90
16289;DHT22;26089;43.538;5.250;2022-07-21T04:17:50;23.70;99.90
16289;DHT22;26089;43.538;5.250;2022-07-21T04:20:18;23.80;99.90
16289;DHT22;26089;43.538;5.250;2022-07-21T04:22:46;23.80;99.90
16289;DHT22;26089;43.538;5.250;2022-07-21T04:25:14;23.80;99.90
16289;DHT22;26089;43.538;5.250;2022-07-21T04:27:42;23.70;99.90
16289;DHT22;26089;43.538;5.250;2022-07-21T04:30:13;23.70;99.90
16289;DHT22;26089;43.538;5.250;2022-07-21T04:32:40;23.70;99.90
16289;DHT22;26089;43.538;5.250;2022-07-21T04:35:08;23.70;99.90
16289;DHT22;26089;43.538;5.250;2022-07-21T04:37:35;23.80;99.90
16289;DHT22;26089;43.538;5.250;2022-07-21T04:40:05;23.80;99.90
16289;DHT22;26089;43.538;5.250;2022-07-21T04:42:33;23.70;99.90
16289;DHT22;26089;43.538;5.250;2022-07-21T04:45:00;23.80;99.90
16289;DHT22;26089;43.538;5.250;2022-07-21T04:47:28;23.80;99.90
16289;DHT22;26089;43.538;5.250;2022-07-21T04:49:55;23.90;99.90
16289;DHT22;26089;43.538;5.250;2022-07-21T04:52:22;24.00;99.90
16289;DHT22;26089;43.538;5.250;2022-07-21T04:54:50;24.00;99.90
16289;DHT22;26089;43.538;5.250;2022-07-21T04:57:17;24.10;99.90
16289;DHT22;26089;43.538;5.250;2022-07-21T04:59:44;24.10;99.90
16289;DHT22;26089;43.538;5.250;2022-07-21T05:02:11;24.00;99.90
16289;DHT22;26089;43.538;5.250;2022-07-21T05:04:39;23.90;99.90
16289;DHT22;26089;43.538;5.250;2022-07-21T05:07:06;23.90;99.90
16289;DHT22;26089;43.538;5.250;2022-07-21T05:09:34;24.00;99.90
16289;DHT22;26089;43.538;5.250;2022-07-21T05:12:01;24.00;99.90
16289;DHT22;26089;43.538;5.250;2022-07-21T05:14:28;24.00;99.90
16289;DHT22;26089;43.538;5.250;2022-07-21T05:16:55;24.10;99.90
16289;DHT22;26089;43.538;5.250;2022-07-21T05:19:22;24.10;99.90
16289;DHT22;26089;43.538;5.250;2022-07-21T05:21:50;24.20;99.90
16289;DHT22;26089;43.538;5.250;2022-07-21T05:24:17;24.30;99.90
16289;DHT22;26089;43.538;5.250;2022-07-21T05:26:44;24.30;99.90
16289;DHT22;26089;43.538;5.250;2022-07-21T05:29:11;24.20;99.90
16289;DHT22;26089;43.538;5.250;2022-07-21T05:31:38;24.30;99.90
16289;DHT22;26089;43.538;5.250;2022-07-21T05:34:05;24.30;99.90
16289;DHT22;26089;43.538;5.250;2022-07-21T05:36:32;24.30;99.90
16289;DHT22;26089;43.538;5.250;2022-07-21T05:39:01;24.40;99.90
16289;DHT22;26089;43.538;5.250;2022-07-21T05:41:28;24.40;99.90
16289;DHT22;26089;43.538;5.250;2022-07-21T05:43:55;24.50;99.90
16289;DHT22;26089;43.538;5.250;2022-07-21T05:46:22;24.50;99.90
16289;DHT22;26089;43.538;5.250;2022-07-21T05:48:49;24.50;99.90
16289;DHT22;26089;43.538;5.250;2022-07-21T05:51:16;24.60;99.90
16289;DHT22;26089;43.538;5.250;2022-07-21T05:53:43;24.60;99.90
16289;DHT22;26089;43.538;5.250;2022-07-21T05:56:11;24.70;99.90
16289;DHT22;26089;43.538;5.250;2022-07-21T05:58:38;24.70;99.90
16289;DHT22;26089;43.538;5.250;2022-07-21T06:01:05;24.70;99.90
16289;DHT22;26089;43.538;5.250;2022-07-21T06:03:39;24.80;99.90
16289;DHT22;26089;43.538;5.250;2022-07-21T06:06:07;24.80;99.90
16289;DHT22;26089;43.538;5.250;2022-07-21T06:08:37;24.90;99.90
16289;DHT22;26089;43.538;5.250;2022-07-21T06:11:04;25.00;99.90
16289;DHT22;26089;43.538;5.250;2022-07-21T06:13:33;25.10;99.90
16289;DHT22;26089;43.538;5.250;2022-07-21T06:16:00;25.20;99.90
16289;DHT22;26089;43.538;5.250;2022-07-21T06:18:27;25.30;99.90
16289;DHT22;26089;43.538;5.250;2022-07-21T06:20:54;25.30;99.90
16289;DHT22;26089;43.538;5.250;2022-07-21T06:23:21;25.30;99.90
16289;DHT22;26089;43.538;5.250;2022-07-21T06:25:49;25.60;99.90
16289;DHT22;26089;43.538;5.250;2022-07-21T06:28:16;26.30;99.90
16289;DHT22;26089;43.538;5.250;2022-07-21T06:30:45;26.50;99.90
16289;DHT22;26089;43.538;5.250;2022-07-21T06:33:12;26.50;99.90
16289;DHT22;26089;43.538;5.250;2022-07-21T06:35:40;26.60;99.90
16289;DHT22;26089;43.538;5.250;2022-07-21T06:38:07;26.80;99.90
16289;DHT22;26089;43.538;5.250;2022-07-21T06:40:34;27.00;99.90
16289;DHT22;26089;43.538;5.250;2022-07-21T06:43:01;27.90;99.90
16289;DHT22;26089;43.538;5.250;2022-07-21T06:45:28;28.70;99.90
16289;DHT22;26089;43.538;5.250;2022-07-21T06:48:01;29.40;99.90
16289;DHT22;26089;43.538;5.250;2022-07-21T06:50:29;30.00;99.90
16289;DHT22;26089;43.538;5.250;2022-07-21T06:52:56;30.30;99.90
16289;DHT22;26089;43.538;5.250;2022-07-21T06:55:23;29.90;99.90
16289;DHT22;26089;43.538;5.250;2022-07-21T06:57:50;29.60;99.90
16289;DHT22;26089;43.538;5.250;2022-07-21T07:00:17;29.90;99.90
16289;DHT22;26089;43.538;5.250;2022-07-21T07:02:45;30.30;99.90
16289;DHT22;26089;43.538;5.250;2022-07-21T07:05:13;30.30;99.90
16289;DHT22;26089;43.538;5.250;2022-07-21T07:07:40;30.40;99.90
16289;DHT22;26089;43.538;5.250;2022-07-21T07:10:09;30.70;99.90
16289;DHT22;26089;43.538;5.250;2022-07-21T07:12:37;30.90;99.90
16289;DHT22;26089;43.538;5.250;2022-07-21T07:15:05;31.10;99.90
16289;DHT22;26089;43.538;5.250;2022-07-21T07:17:32;31.50;99.90
16289;DHT22;26089;43.538;5.250;2022-07-21T07:19:59;31.40;99.90
16289;DHT22;26089;43.538;5.250;2022-07-21T07:22:27;31.10;99.90
16289;DHT22;26089;43.538;5.250;2022-07-21T07:24:54;31.40;99.90
16289;DHT22;26089;43.538;5.250;2022-07-21T07:27:21;32.10;99.90
16289;DHT22;26089;43.538;5.250;2022-07-21T07:29:48;31.90;99.90
16289;DHT22;26089;43.538;5.250;2022-07-21T07:32:15;32.20;99.90
16289;DHT22;26089;43.538;5.250;2022-07-21T07:34:42;32.50;99.90
16289;DHT22;26089;43.538;5.250;2022-07-21T07:37:09;32.10;99.90
16289;DHT22;26089;43.538;5.250;2022-07-21T07:39:38;31.40;99.90
16289;DHT22;26089;43.538;5.250;2022-07-21T07:42:06;31.60;99.90
16289;DHT22;26089;43.538;5.250;2022-07-21T07:44:33;31.50;99.90
16289;DHT22;26089;43.538;5.250;2022-07-21T07:47:00;31.60;99.90
16289;DHT22;26089;43.538;5.250;2022-07-21T07:49:28;32.00;99.90
16289;DHT22;26089;43.538;5.250;2022-07-21T07:51:55;32.30;99.90
16289;DHT22;26089;43.538;5.250;2022-07-21T07:54:23;32.40;99.90
16289;DHT22;26089;43.538;5.250;2022-07-21T07:56:51;32.20;99.90
16289;DHT22;26089;43.538;5.250;2022-07-21T07:59:18;32.20;99.90
16289;DHT22;26089;43.538;5.250;2022-07-21T08:01:45;32.50;99.90
16289;DHT22;26089;43.538;5.250;2022-07-21T08:04:12;32.50;99.90
16289;DHT22;26089;43.538;5.250;2022-07-21T08:06:40;32.70;99.90
16289;DHT22;26089;43.538;5.250;2022-07-21T08:09:08;32.70;99.90
16289;DHT22;26089;43.538;5.250;2022-07-21T08:11:35;32.40;99.90
16289;DHT22;26089;43.538;5.250;2022-07-21T08:14:04;32.80;99.90
16289;DHT22;26089;43.538;5.250;2022-07-21T08:16:31;32.70;99.90
16289;DHT22;26089;43.538;5.250;2022-07-21T08:18:58;32.50;99.90
16289;DHT22;26089;43.538;5.250;2022-07-21T08:21:25;32.20;99.90
16289;DHT22;26089;43.538;5.250;2022-07-21T08:23:56;32.20;99.90
16289;DHT22;26089;43.538;5.250;2022-07-21T08:26:24;32.20;99.90
16289;DHT22;26089;43.538;5.250;2022-07-21T08:28:51;32.70;99.90
16289;DHT22;26089;43.538;5.250;2022-07-21T08:31:20;32.80;99.90
16289;DHT22;26089;43.538;5.250;2022-07-21T08:33:48;32.90;99.90
16289;DHT22;26089;43.538;5.250;2022-07-21T08:36:15;32.90;99.90
16289;DHT22;26089;43.538;5.250;2022-07-21T08:38:42;33.20;99.90
16289;DHT22;26089;43.538;5.250;2022-07-21T08:41:09;33.50;99.90
16289;DHT22;26089;43.538;5.250;2022-07-21T08:43:37;33.50;99.90
16289;DHT22;26089;43.538;5.250;2022-07-21T08:46:04;33.40;99.90
16289;DHT22;26089;43.538;5.250;2022-07-21T08:48:32;33.20;99.90
16289;DHT22;26089;43.538;5.250;2022-07-21T08:50:59;33.20;99.90
16289;DHT22;26089;43.538;5.250;2022-07-21T08:53:26;33.20;99.90
16289;DHT22;26089;43.538;5.250;2022-07-21T08:55:55;33.40;99.90
16289;DHT22;26089;43.538;5.250;2022-07-21T08:58:22;33.40;99.90
16289;DHT22;26089;43.538;5.250;2022-07-21T09:00:50;33.50;99.90
16289;DHT22;26089;43.538;5.250;2022-07-21T09:03:19;33.30;99.90
16289;DHT22;26089;43.538;5.250;2022-07-21T09:06:03;33.80;99.90
16289;DHT22;26089;43.538;5.250;2022-07-21T09:08:34;34.10;99.90
16289;DHT22;26089;43.538;5.250;2022-07-21T09:11:15;34.50;99.90
16289;DHT22;26089;43.538;5.250;2022-07-21T09:13:44;34.00;99.90
16289;DHT22;26089;43.538;5.250;2022-07-21T09:16:11;34.00;99.90
16289;DHT22;26089;43.538;5.250;2022-07-21T09:18:49;34.50;99.90
16289;DHT22;26089;43.538;5.250;2022-07-21T09:21:19;34.60;99.90
16289;DHT22;26089;43.538;5.250;2022-07-21T09:23:46;34.90;99.90
16289;DHT22;26089;43.538;5.250;2022-07-21T09:26:13;34.50;99.90
16289;DHT22;26089;43.538;5.250;2022-07-21T09:28:41;34.90;99.90
16289;DHT22;26089;43.538;5.250;2022-07-21T09:31:10;34.70;99.90
16289;DHT22;26089;43.538;5.250;2022-07-21T09:33:39;34.70;99.90
16289;DHT22;26089;43.538;5.250;2022-07-21T09:36:08;34.80;99.90
16289;DHT22;26089;43.538;5.250;2022-07-21T09:38:39;34.80;99.90
16289;DHT22;26089;43.538;5.250;2022-07-21T09:41:10;34.50;99.90
16289;DHT22;26089;43.538;5.250;2022-07-21T09:43:40;34.60;99.90
16289;DHT22;26089;43.538;5.250;2022-07-21T09:46:13;34.80;99.90
16289;DHT22;26089;43.538;5.250;2022-07-21T09:48:42;34.60;99.90
16289;DHT22;26089;43.538;5.250;2022-07-21T09:51:26;34.80;99.90
16289;DHT22;26089;43.538;5.250;2022-07-21T09:53:58;35.20;99.90
16289;DHT22;26089;43.538;5.250;2022-07-21T09:56:27;35.50;99.90
16289;DHT22;26089;43.538;5.250;2022-07-21T09:58:56;35.20;99.90
16289;DHT22;26089;43.538;5.250;2022-07-21T10:01:24;35.50;99.90
16289;DHT22;26089;43.538;5.250;2022-07-21T10:03:52;35.70;99.90
16289;DHT22;26089;43.538;5.250;2022-07-21T10:06:22;35.70;99.90
16289;DHT22;26089;43.538;5.250;2022-07-21T10:08:49;36.40;99.90
16289;DHT22;26089;43.538;5.250;2022-07-21T10:11:18;36.10;99.90
16289;DHT22;26089;43.538;5.250;2022-07-21T10:13:45;36.10;99.90
16289;DHT22;26089;43.538;5.250;2022-07-21T10:16:13;36.30;99.90
16289;DHT22;26089;43.538;5.250;2022-07-21T10:18:51;36.50;99.80
16289;DHT22;26089;43.538;5.250;2022-07-21T10:21:28;36.80;98.40
16289;DHT22;26089;43.538;5.250;2022-07-21T10:23:56;37.00;98.20
16289;DHT22;26089;43.538;5.250;2022-07-21T10:26:24;37.10;98.10
16289;DHT22;26089;43.538;5.250;2022-07-21T10:28:51;36.80;98.10
16289;DHT22;26089;43.538;5.250;2022-07-21T10:31:20;37.20;97.90
16289;DHT22;26089;43.538;5.250;2022-07-21T10:33:58;37.80;96.90
16289;DHT22;26089;43.538;5.250;2022-07-21T10:36:46;36.80;97.30
16289;DHT22;26089;43.538;5.250;2022-07-21T10:39:22;36.90;96.60
16289;DHT22;26089;43.538;5.250;2022-07-21T10:41:53;36.50;96.60
16289;DHT22;26089;43.538;5.250;2022-07-21T10:44:44;36.40;96.90
16289;DHT22;26089;43.538;5.250;2022-07-21T10:47:13;36.60;95.50
16289;DHT22;26089;43.538;5.250;2022-07-21T10:49:46;36.40;95.40
16289;DHT22;26089;43.538;5.250;2022-07-21T10:52:56;36.60;95.50
16289;DHT22;26089;43.538;5.250;2022-07-21T10:55:24;36.80;93.80
16289;DHT22;26089;43.538;5.250;2022-07-21T10:58:13;36.90;94.30
16289;DHT22;26089;43.538;5.250;2022-07-21T11:00:45;37.10;93.00
16289;DHT22;26089;43.538;5.250;2022-07-21T11:03:18;36.90;92.60
16289;DHT22;26089;43.538;5.250;2022-07-21T11:06:15;37.10;93.00
16289;DHT22;26089;43.538;5.250;2022-07-21T11:08:44;37.40;91.80
16289;DHT22;26089;43.538;5.250;2022-07-21T11:11:12;37.40;88.70
16289;DHT22;26089;43.538;5.250;2022-07-21T11:14:14;38.10;89.10
16289;DHT22;26089;43.538;5.250;2022-07-21T11:17:07;38.00;91.50
16289;DHT22;26089;43.538;5.250;2022-07-21T11:19:42;37.70;89.90
16289;DHT22;26089;43.538;5.250;2022-07-21T11:22:13;37.70;88.00
16289;DHT22;26089;43.538;5.250;2022-07-21T11:24:44;37.70;85.80
16289;DHT22;26089;43.538;5.250;2022-07-21T11:27:13;37.40;86.60
16289;DHT22;26089;43.538;5.250;2022-07-21T11:29:43;38.20;86.90
16289;DHT22;26089;43.538;5.250;2022-07-21T11:32:12;38.50;84.20
16289;DHT22;26089;43.538;5.250;2022-07-21T11:34:43;38.50;82.50
16289;DHT22;26089;43.538;5.250;2022-07-21T11:37:12;38.20;81.60
16289;DHT22;26089;43.538;5.250;2022-07-21T11:39:39;38.10;82.40
16289;DHT22;26089;43.538;5.250;2022-07-21T11:42:08;38.00;82.20
16289;DHT22;26089;43.538;5.250;2022-07-21T11:44:36;37.70;85.20
16289;DHT22;26089;43.538;5.250;2022-07-21T11:47:06;38.00;81.50
16289;DHT22;26089;43.538;5.250;2022-07-21T11:49:34;38.50;80.30
16289;DHT22;26089;43.538;5.250;2022-07-21T11:52:03;38.20;80.00
16289;DHT22;26089;43.538;5.250;2022-07-21T11:54:33;38.50;78.90
16289;DHT22;26089;43.538;5.250;2022-07-21T11:57:02;38.80;83.10
16289;DHT22;26089;43.538;5.250;2022-07-21T11:59:29;38.80;82.20
16289;DHT22;26089;43.538;5.250;2022-07-21T12:01:59;38.90;79.50
16289;DHT22;26089;43.538;5.250;2022-07-21T12:04:29;39.00;79.00
16289;DHT22;26089;43.538;5.250;2022-07-21T12:06:58;38.70;79.40
16289;DHT22;26089;43.538;5.250;2022-07-21T12:09:25;39.00;80.50
16289;DHT22;26089;43.538;5.250;2022-07-21T12:11:52;39.00;79.30
16289;DHT22;26089;43.538;5.250;2022-07-21T12:14:20;38.90;79.90
16289;DHT22;26089;43.538;5.250;2022-07-21T12:16:49;39.10;80.50
16289;DHT22;26089;43.538;5.250;2022-07-21T12:19:17;39.10;78.40
16289;DHT22;26089;43.538;5.250;2022-07-21T12:21:47;39.30;79.10
16289;DHT22;26089;43.538;5.250;2022-07-21T12:24:15;39.30;78.80
16289;DHT22;26089;43.538;5.250;2022-07-21T12:26:43;39.20;78.10
16289;DHT22;26089;43.538;5.250;2022-07-21T12:29:10;39.40;74.00
16289;DHT22;26089;43.538;5.250;2022-07-21T12:31:50;39.30;72.80
16289;DHT22;26089;43.538;5.250;2022-07-21T12:34:17;39.20;73.00
16289;DHT22;26089;43.538;5.250;2022-07-21T12:36:47;39.20;73.70
16289;DHT22;26089;43.538;5.250;2022-07-21T12:39:16;38.80;73.30
16289;DHT22;26089;43.538;5.250;2022-07-21T12:42:09;38.80;74.50
16289;DHT22;26089;43.538;5.250;2022-07-21T12:44:37;39.30;74.20
16289;DHT22;26089;43.538;5.250;2022-07-21T12:47:18;39.60;73.80
16289;DHT22;26089;43.538;5.250;2022-07-21T12:49:57;39.80;71.80
16289;DHT22;26089;43.538;5.250;2022-07-21T12:52:27;39.80;71.10
16289;DHT22;26089;43.538;5.250;2022-07-21T12:54:56;39.50;69.40
16289;DHT22;26089;43.538;5.250;2022-07-21T12:57:26;39.60;69.10
16289;DHT22;26089;43.538;5.250;2022-07-21T12:59:55;39.20;68.50
16289;DHT22;26089;43.538;5.250;2022-07-21T13:02:22;39.10;67.90
16289;DHT22;26089;43.538;5.250;2022-07-21T13:04:49;39.20;67.90
16289;DHT22;26089;43.538;5.250;2022-07-21T13:07:16;39.20;65.40
16289;DHT22;26089;43.538;5.250;2022-07-21T13:09:45;39.10;68.70
16289;DHT22;26089;43.538;5.250;2022-07-21T13:12:12;39.20;67.90
16289;DHT22;26089;43.538;5.250;2022-07-21T13:14:40;39.30;65.80
16289;DHT22;26089;43.538;5.250;2022-07-21T13:17:07;39.40;67.20
16289;DHT22;26089;43.538;5.250;2022-07-21T13:19:35;39.40;66.20
16289;DHT22;26089;43.538;5.250;2022-07-21T13:22:03;39.40;65.20
16289;DHT22;26089;43.538;5.250;2022-07-21T13:24:31;39.40;63.40
16289;DHT22;26089;43.538;5.250;2022-07-21T13:26:59;39.00;65.90
16289;DHT22;26089;43.538;5.250;2022-07-21T13:29:26;39.10;65.70
16289;DHT22;26089;43.538;5.250;2022-07-21T13:31:53;39.20;63.80
16289;DHT22;26089;43.538;5.250;2022-07-21T13:34:20;39.10;64.00
16289;DHT22;26089;43.538;5.250;2022-07-21T13:36:48;39.30;64.20
16289;DHT22;26089;43.538;5.250;2022-07-21T13:39:15;39.50;64.50
16289;DHT22;26089;43.538;5.250;2022-07-21T13:41:42;39.20;62.30
16289;DHT22;26089;43.538;5.250;2022-07-21T13:44:10;39.30;63.30
16289;DHT22;26089;43.538;5.250;2022-07-21T13:46:37;38.70;60.70
16289;DHT22;26089;43.538;5.250;2022-07-21T13:49:04;38.90;61.30
16289;DHT22;26089;43.538;5.250;2022-07-21T13:51:31;38.80;62.70
16289;DHT22;26089;43.538;5.250;2022-07-21T13:53:58;39.00;59.60
16289;DHT22;26089;43.538;5.250;2022-07-21T13:56:25;38.70;60.00
16289;DHT22;26089;43.538;5.250;2022-07-21T13:58:52;38.60;60.30
16289;DHT22;26089;43.538;5.250;2022-07-21T14:01:21;38.90;63.20
16289;DHT22;26089;43.538;5.250;2022-07-21T14:03:49;39.20;61.80
16289;DHT22;26089;43.538;5.250;2022-07-21T14:06:17;39.20;63.10
16289;DHT22;26089;43.538;5.250;2022-07-21T14:08:44;38.80;59.60
16289;DHT22;26089;43.538;5.250;2022-07-21T14:11:11;38.80;62.90
16289;DHT22;26089;43.538;5.250;2022-07-21T14:13:39;39.20;64.60
16289;DHT22;26089;43.538;5.250;2022-07-21T14:16:07;38.60;64.90
16289;DHT22;26089;43.538;5.250;2022-07-21T14:18:35;38.50;65.30
16289;DHT22;26089;43.538;5.250;2022-07-21T14:21:03;38.80;64.20
16289;DHT22;26089;43.538;5.250;2022-07-21T14:23:30;38.70;64.50
16289;DHT22;26089;43.538;5.250;2022-07-21T14:25:59;39.10;61.80
16289;DHT22;26089;43.538;5.250;2022-07-21T14:28:25;38.80;61.30
16289;DHT22;26089;43.538;5.250;2022-07-21T14:30:52;39.00;62.10
16289;DHT22;26089;43.538;5.250;2022-07-21T14:33:19;39.10;60.70
16289;DHT22;26089;43.538;5.250;2022-07-21T14:35:47;38.90;62.10
16289;DHT22;26089;43.538;5.250;2022-07-21T14:38:14;38.70;62.10
16289;DHT22;26089;43.538;5.250;2022-07-21T14:40:43;38.20;62.80
16289;DHT22;26089;43.538;5.250;2022-07-21T14:43:10;38.30;61.80
16289;DHT22;26089;43.538;5.250;2022-07-21T14:45:37;38.20;62.10
16289;DHT22;26089;43.538;5.250;2022-07-21T14:48:05;38.30;61.90
16289;DHT22;26089;43.538;5.250;2022-07-21T14:50:33;38.30;62.40
16289;DHT22;26089;43.538;5.250;2022-07-21T14:53:02;38.50;60.90
16289;DHT22;26089;43.538;5.250;2022-07-21T14:55:31;38.50;61.20
16289;DHT22;26089;43.538;5.250;2022-07-21T14:57:58;38.60;60.30
16289;DHT22;26089;43.538;5.250;2022-07-21T15:00:25;38.70;60.50
16289;DHT22;26089;43.538;5.250;2022-07-21T15:02:53;38.90;60.10
16289;DHT22;26089;43.538;5.250;2022-07-21T15:05:20;38.80;60.30
16289;DHT22;26089;43.538;5.250;2022-07-21T15:07:47;38.60;59.20
16289;DHT22;26089;43.538;5.250;2022-07-21T15:10:16;38.50;59.00
16289;DHT22;26089;43.538;5.250;2022-07-21T15:12:43;38.50;58.60
16289;DHT22;26089;43.538;5.250;2022-07-21T15:15:10;38.10;58.90
16289;DHT22;26089;43.538;5.250;2022-07-21T15:17:37;38.30;60.20
16289;DHT22;26089;43.538;5.250;2022-07-21T15:20:06;37.90;59.70
16289;DHT22;26089;43.538;5.250;2022-07-21T15:22:33;37.80;60.70
16289;DHT22;26089;43.538;5.250;2022-07-21T15:25:01;38.20;59.80
16289;DHT22;26089;43.538;5.250;2022-07-21T15:27:30;38.20;57.50
16289;DHT22;26089;43.538;5.250;2022-07-21T15:29:57;38.10;57.70
16289;DHT22;26089;43.538;5.250;2022-07-21T15:32:25;38.10;58.40
16289;DHT22;26089;43.538;5.250;2022-07-21T15:34:54;38.10;57.60
16289;DHT22;26089;43.538;5.250;2022-07-21T15:37:21;38.20;58.10
16289;DHT22;26089;43.538;5.250;2022-07-21T15:39:48;38.40;57.60